createdAt,value
2023-04-25T00:01:25.258Z,70.38
2023-04-25T00:03:52.319Z,70.32
2023-04-25T00:06:19.472Z,70.53
2023-04-25T00:08:46.169Z,70.79
2023-04-25T00:11:12.838Z,70.91
2023-04-25T00:13:42.776Z,70.63
2023-04-25T00:16:09.642Z,70.65
2023-04-25T00:18:37.457Z,71.06
2023-04-25T00:21:04.211Z,71.19
2023-04-25T00:23:31.034Z,70.88
2023-04-25T00:25:57.684Z,70.76
2023-04-25T00:28:24.317Z,70.60
2023-04-25T00:30:51.340Z,70.92
2023-04-25T00:33:18.044Z,71.02
2023-04-25T00:35:44.717Z,70.59
2023-04-25T00:38:11.371Z,71.00
2023-04-25T00:40:38.020Z,71.11
2023-04-25T00:43:06.465Z,71.14
2023-04-25T00:45:38.873Z,71.43
2023-04-25T00:48:06.541Z,71.41
2023-04-25T00:50:38.057Z,70.95
2023-04-25T00:53:04.968Z,70.77
2023-04-25T00:55:32.565Z,70.84
2023-04-25T00:57:59.376Z,70.93
2023-04-25T01:00:26.163Z,71.31
2023-04-25T01:02:53.452Z,71.06
2023-04-25T01:05:20.320Z,71.51
2023-04-25T01:07:46.996Z,71.35
2023-04-25T01:10:13.755Z,71.18
2023-04-25T01:12:41.040Z,70.87
2023-04-25T01:15:07.975Z,71.27
2023-04-25T01:17:36.687Z,71.81
2023-04-25T01:20:08.514Z,71.31
2023-04-25T01:22:35.609Z,71.28
2023-04-25T01:25:02.740Z,71.50
2023-04-25T01:27:30.381Z,71.35
2023-04-25T01:29:57.754Z,71.74
2023-04-25T01:32:25.056Z,71.71
2023-04-25T01:34:51.758Z,71.47
2023-04-25T01:37:18.872Z,72.22
2023-04-25T01:39:45.832Z,72.29
2023-04-25T01:42:14.703Z,72.33
2023-04-25T01:44:41.450Z,71.84
2023-04-25T01:47:08.176Z,71.93
2023-04-25T01:49:34.884Z,72.15
2023-04-25T01:52:01.631Z,72.18
2023-04-25T01:54:28.320Z,72.06
2023-04-25T01:56:59.009Z,72.18
2023-04-25T01:59:26.666Z,72.07
2023-04-25T02:01:53.436Z,72.22
2023-04-25T02:04:20.796Z,72.26
2023-04-25T02:06:47.556Z,72.33
2023-04-25T02:09:14.259Z,72.73
2023-04-25T02:11:40.993Z,72.52
2023-04-25T02:14:07.690Z,72.71
2023-04-25T02:16:34.440Z,72.48
2023-04-25T02:19:01.230Z,72.29
2023-04-25T02:21:27.888Z,72.36
2023-04-25T02:23:54.984Z,72.49
2023-04-25T02:26:24.767Z,72.39
2023-04-25T02:28:52.731Z,72.62
2023-04-25T02:31:19.674Z,72.42
2023-04-25T02:33:46.341Z,72.42
2023-04-25T02:36:12.989Z,72.55
2023-04-25T02:38:39.943Z,72.90
2023-04-25T02:41:12.363Z,72.69
2023-04-25T02:43:39.077Z,72.61
2023-04-25T02:46:05.866Z,72.36
2023-04-25T02:48:32.525Z,72.71
2023-04-25T02:50:59.192Z,72.64
2023-04-25T02:53:25.902Z,72.47
2023-04-25T02:55:53.754Z,72.46
2023-04-25T02:58:20.805Z,72.65
2023-04-25T03:00:47.524Z,72.68
2023-04-25T03:03:14.479Z,72.83
2023-04-25T03:05:41.224Z,72.79
2023-04-25T03:08:07.976Z,72.86
2023-04-25T03:10:34.677Z,72.28
2023-04-25T03:13:01.416Z,72.93
2023-04-25T03:15:28.156Z,72.61
2023-04-25T03:17:54.848Z,72.96
2023-04-25T03:20:21.612Z,73.00
2023-04-25T03:22:48.290Z,73.01
2023-04-25T03:25:14.939Z,73.06
2023-04-25T03:27:41.634Z,72.82
2023-04-25T03:30:08.952Z,72.48
2023-04-25T03:32:36.341Z,72.99
2023-04-25T03:35:03.072Z,72.74
2023-04-25T03:37:29.808Z,72.94
2023-04-25T03:39:56.454Z,72.96
2023-04-25T03:42:24.047Z,73.09
2023-04-25T03:44:52.480Z,73.24
2023-04-25T03:47:19.146Z,73.04
2023-04-25T03:49:45.800Z,73.28
2023-04-25T03:52:12.538Z,73.63
2023-04-25T03:54:39.308Z,73.71
2023-04-25T03:57:06.040Z,73.48
2023-04-25T03:59:32.714Z,73.33
2023-04-25T04:01:59.417Z,73.67
2023-04-25T04:04:26.356Z,73.50
2023-04-25T04:06:53.594Z,73.63
2023-04-25T04:09:21.500Z,73.50
2023-04-25T04:11:48.155Z,73.33
2023-04-25T04:14:14.854Z,73.42
2023-04-25T04:16:41.671Z,73.44
2023-04-25T04:19:08.439Z,73.37
2023-04-25T04:21:35.594Z,73.71
2023-04-25T04:24:02.287Z,73.77
2023-04-25T04:26:29.007Z,73.25
2023-04-25T04:28:56.092Z,73.54
2023-04-25T04:31:23.672Z,73.58
2023-04-25T04:33:51.113Z,73.39
2023-04-25T04:36:20.950Z,73.65
2023-04-25T04:38:47.625Z,73.69
2023-04-25T04:41:14.283Z,73.68
2023-04-25T04:43:41.078Z,73.77
2023-04-25T04:46:07.778Z,73.86
2023-04-25T04:48:35.421Z,73.84
2023-04-25T04:51:02.288Z,73.43
2023-04-25T04:53:29.077Z,73.38
2023-04-25T04:55:55.944Z,73.83
2023-04-25T04:58:22.760Z,73.92
2023-04-25T05:00:49.670Z,73.74
2023-04-25T05:03:16.837Z,73.76
2023-04-25T05:05:43.703Z,73.41
2023-04-25T05:08:10.469Z,73.62
2023-04-25T05:10:37.123Z,73.46
2023-04-25T05:13:03.929Z,73.79
2023-04-25T05:15:30.866Z,74.07
2023-04-25T05:17:57.772Z,73.87
2023-04-25T05:20:24.615Z,73.67
2023-04-25T05:22:51.268Z,73.72
2023-04-25T05:25:18.191Z,73.76
2023-04-25T05:27:44.869Z,73.72
2023-04-25T05:30:11.774Z,73.73
2023-04-25T05:32:38.604Z,74.05
2023-04-25T05:35:07.968Z,73.69
2023-04-25T05:37:34.894Z,73.89
2023-04-25T05:40:01.722Z,74.39
2023-04-25T05:42:28.411Z,73.99
2023-04-25T05:44:55.066Z,74.02
2023-04-25T05:47:21.722Z,74.32
2023-04-25T05:49:48.367Z,74.04
2023-04-25T05:52:16.152Z,73.71
2023-04-25T05:54:42.804Z,74.46
2023-04-25T05:57:09.551Z,74.63
2023-04-25T05:59:36.905Z,74.33
2023-04-25T06:02:03.613Z,74.75
2023-04-25T06:04:30.662Z,74.27
2023-04-25T06:06:57.472Z,74.62
2023-04-25T06:09:24.138Z,74.18
2023-04-25T06:11:50.835Z,74.20
2023-04-25T06:14:17.583Z,74.68
2023-04-25T06:16:44.241Z,74.59
2023-04-25T06:19:11.010Z,74.25
2023-04-25T06:21:37.669Z,74.63
2023-04-25T06:24:04.743Z,74.49
2023-04-25T06:26:31.433Z,74.38
2023-04-25T06:28:58.082Z,74.32
2023-04-25T06:31:24.881Z,74.73
2023-04-25T06:33:51.894Z,74.20
2023-04-25T06:36:18.758Z,74.90
2023-04-25T06:38:45.574Z,74.35
2023-04-25T06:41:12.251Z,74.95
2023-04-25T06:43:38.911Z,74.51
2023-04-25T06:46:05.613Z,74.89
2023-04-25T06:48:32.330Z,74.57
2023-04-25T06:50:59.036Z,74.70
2023-04-25T06:53:25.765Z,75.03
2023-04-25T06:55:52.485Z,74.57
2023-04-25T06:58:19.698Z,74.83
2023-04-25T07:00:46.368Z,75.21
2023-04-25T07:03:13.256Z,74.93
2023-04-25T07:05:40.240Z,75.38
2023-04-25T07:08:06.996Z,75.35
2023-04-25T07:10:33.668Z,74.81
2023-04-25T07:13:00.422Z,75.27
2023-04-25T07:15:27.100Z,74.99
2023-04-25T07:17:53.857Z,75.10
2023-04-25T07:20:20.875Z,75.10
2023-04-25T07:22:47.700Z,75.38
2023-04-25T07:25:14.409Z,75.23
2023-04-25T07:27:41.097Z,74.80
2023-04-25T07:30:08.491Z,74.89
2023-04-25T07:32:35.823Z,75.08
2023-04-25T07:35:03.114Z,74.69
2023-04-25T07:37:29.884Z,74.51
2023-04-25T07:39:56.584Z,74.79
2023-04-25T07:42:23.282Z,74.64
2023-04-25T07:44:49.933Z,74.92
2023-04-25T07:47:16.662Z,74.98
2023-04-25T07:49:43.380Z,74.47
2023-04-25T07:52:10.054Z,74.84
2023-04-25T07:54:36.731Z,74.64
2023-04-25T07:57:03.584Z,74.28
2023-04-25T07:59:30.807Z,74.13
2023-04-25T08:01:58.611Z,73.96
2023-04-25T08:04:26.951Z,74.34
2023-04-25T08:06:54.848Z,74.78
2023-04-25T08:09:21.937Z,74.42
2023-04-25T08:11:49.177Z,74.75
2023-04-25T08:14:15.877Z,74.53
2023-04-25T08:16:43.215Z,74.49
2023-04-25T08:19:11.302Z,74.15
2023-04-25T08:21:38.058Z,74.51
2023-04-25T08:24:05.024Z,75.00
2023-04-25T08:26:31.737Z,74.85
2023-04-25T08:28:58.374Z,74.72
2023-04-25T08:31:25.080Z,74.85
2023-04-25T08:33:53.114Z,74.93
2023-04-25T08:36:31.584Z,75.07
2023-04-25T08:39:05.917Z,75.29
2023-04-25T08:41:32.892Z,74.79
2023-04-25T08:44:01.570Z,75.38
2023-04-25T08:46:28.914Z,74.83
2023-04-25T08:48:59.628Z,75.12
2023-04-25T08:51:29.110Z,75.43
2023-04-25T08:53:57.938Z,75.33
2023-04-25T08:56:29.048Z,75.30
2023-04-25T08:58:56.652Z,75.09
2023-04-25T09:01:23.420Z,75.61
2023-04-25T09:03:50.547Z,75.52
2023-04-25T09:06:19.015Z,75.13
2023-04-25T09:08:45.693Z,75.30
2023-04-25T09:11:14.428Z,75.04
2023-04-25T09:13:41.206Z,75.19
2023-04-25T09:16:07.943Z,74.89
2023-04-25T09:18:35.973Z,74.65
2023-04-25T09:21:14.152Z,74.34
2023-04-25T09:23:46.167Z,75.18
2023-04-25T09:26:18.060Z,74.78
2023-04-25T09:28:44.814Z,75.11
2023-04-25T09:31:14.644Z,75.34
2023-04-25T09:33:41.930Z,75.24
2023-04-25T09:36:12.295Z,75.52
2023-04-25T09:38:47.256Z,75.46
2023-04-25T09:41:14.210Z,75.60
2023-04-25T09:43:41.071Z,75.23
2023-04-25T09:46:12.530Z,74.94
2023-04-25T09:48:39.303Z,74.80
2023-04-25T09:51:17.596Z,74.95
2023-04-25T09:53:47.410Z,74.68
2023-04-25T09:56:14.551Z,74.67
2023-04-25T09:58:42.184Z,74.59
2023-04-25T10:01:11.127Z,74.28
2023-04-25T10:03:46.063Z,74.05
2023-04-25T10:06:23.583Z,74.25
2023-04-25T10:08:52.383Z,74.21
2023-04-25T10:11:19.380Z,73.92
2023-04-25T10:13:47.036Z,74.21
2023-04-25T10:16:14.676Z,73.76
2023-04-25T10:18:41.782Z,74.29
2023-04-25T10:21:08.617Z,74.74
2023-04-25T10:23:36.271Z,74.52
2023-04-25T10:26:03.213Z,74.72
2023-04-25T10:28:29.862Z,74.65
2023-04-25T10:31:04.943Z,74.82
2023-04-25T10:33:35.835Z,74.72
2023-04-25T10:36:13.932Z,74.92
2023-04-25T10:38:41.284Z,74.63
2023-04-25T10:41:10.490Z,74.80
2023-04-25T10:43:43.982Z,74.68
2023-04-25T10:46:24.423Z,74.42
2023-04-25T10:48:56.417Z,74.05
2023-04-25T10:51:24.188Z,73.86
2023-04-25T10:53:56.888Z,74.24
2023-04-25T10:56:26.685Z,73.92
2023-04-25T10:59:15.805Z,74.11
2023-04-25T11:01:45.229Z,74.14
2023-04-25T11:04:37.301Z,73.85
2023-04-25T11:07:08.346Z,73.88
2023-04-25T11:09:37.079Z,73.55
2023-04-25T11:12:04.002Z,73.48
2023-04-25T11:14:30.732Z,73.55
2023-04-25T11:17:03.131Z,73.47
2023-04-25T11:19:30.554Z,73.62
2023-04-25T11:21:58.507Z,73.43
2023-04-25T11:24:29.050Z,73.81
2023-04-25T11:26:56.187Z,73.26
2023-04-25T11:29:30.128Z,73.24
2023-04-25T11:31:59.153Z,73.42
2023-04-25T11:34:27.126Z,73.05
2023-04-25T11:36:54.516Z,73.54
2023-04-25T11:39:21.685Z,73.36
2023-04-25T11:41:48.733Z,73.68
2023-04-25T11:44:19.697Z,73.39
2023-04-25T11:46:47.267Z,73.62
2023-04-25T11:49:15.193Z,73.72
2023-04-25T11:51:44.362Z,73.85
2023-04-25T11:54:12.826Z,73.95
2023-04-25T11:56:43.458Z,74.34
2023-04-25T11:59:10.777Z,74.36
2023-04-25T12:01:39.912Z,74.85
2023-04-25T12:04:16.851Z,74.47
2023-04-25T12:06:47.728Z,74.97
2023-04-25T12:09:16.938Z,74.52
2023-04-25T12:11:45.462Z,74.83
2023-04-25T12:14:13.235Z,74.51
2023-04-25T12:16:47.881Z,74.61
2023-04-25T12:19:16.345Z,74.67
2023-04-25T12:21:54.423Z,74.49
2023-04-25T12:24:26.718Z,74.35
2023-04-25T12:27:06.618Z,73.93
2023-04-25T12:29:46.009Z,74.21
2023-04-25T12:32:16.366Z,73.99
2023-04-25T12:34:43.544Z,74.47
2023-04-25T12:37:11.433Z,74.94
2023-04-25T12:39:38.450Z,74.43
2023-04-25T12:42:07.689Z,74.88
2023-04-25T12:44:36.143Z,74.57
2023-04-25T12:47:04.356Z,74.75
2023-04-25T12:49:31.294Z,74.93
2023-04-25T12:51:58.152Z,74.42
2023-04-25T12:54:25.741Z,74.40
2023-04-25T12:56:52.565Z,74.32
2023-04-25T12:59:19.636Z,74.21
2023-04-25T13:01:46.655Z,74.16
2023-04-25T13:04:13.550Z,74.32
2023-04-25T13:06:40.658Z,74.41
2023-04-25T13:09:07.951Z,74.43
2023-04-25T13:11:34.677Z,74.00
2023-04-25T13:14:02.088Z,74.03
2023-04-25T13:16:28.825Z,74.01
2023-04-25T13:18:57.311Z,74.17
2023-04-25T13:21:24.375Z,74.38
2023-04-25T13:23:51.583Z,74.22
2023-04-25T13:26:18.621Z,74.31
2023-04-25T13:28:45.297Z,73.91
2023-04-25T13:31:12.148Z,73.58
2023-04-25T13:33:38.866Z,73.58
2023-04-25T13:36:06.727Z,73.06
2023-04-25T13:38:33.713Z,73.06
2023-04-25T13:41:00.649Z,73.05
2023-04-25T13:43:27.293Z,73.07
2023-04-25T13:45:54.088Z,72.66
2023-04-25T13:48:21.404Z,73.06
2023-04-25T13:50:48.129Z,72.73
2023-04-25T13:53:14.831Z,73.02
2023-04-25T13:55:41.596Z,73.20
2023-04-25T13:58:09.055Z,73.22
2023-04-25T14:00:40.470Z,73.04
2023-04-25T14:03:10.937Z,73.00
2023-04-25T14:05:39.255Z,73.15
2023-04-25T14:08:11.022Z,72.65
2023-04-25T14:10:38.369Z,73.02
2023-04-25T14:13:05.694Z,72.84
2023-04-25T14:15:33.297Z,72.99
2023-04-25T14:18:01.718Z,72.78
2023-04-25T14:20:28.886Z,72.50
2023-04-25T14:22:57.158Z,72.58
2023-04-25T14:25:24.476Z,72.56
2023-04-25T14:27:51.430Z,72.45
2023-04-25T14:30:19.734Z,72.24
2023-04-25T14:32:46.789Z,71.93
2023-04-25T14:35:13.868Z,72.03
2023-04-25T14:37:41.080Z,72.04
2023-04-25T14:40:13.108Z,72.04
2023-04-25T14:42:40.865Z,71.92
2023-04-25T14:45:09.608Z,71.92
2023-04-25T14:47:39.235Z,72.03
2023-04-25T14:50:07.737Z,71.93
2023-04-25T14:52:34.413Z,71.67
2023-04-25T14:55:02.809Z,72.20
2023-04-25T14:57:29.513Z,71.55
2023-04-25T14:59:56.354Z,71.94
2023-04-25T15:02:23.628Z,72.18
2023-04-25T15:04:50.487Z,71.86
2023-04-25T15:07:18.533Z,72.08
2023-04-25T15:09:45.531Z,72.26
2023-04-25T15:12:13.113Z,72.15
2023-04-25T15:14:39.790Z,72.24
2023-04-25T15:17:06.500Z,72.03
2023-04-25T15:19:33.448Z,72.18
2023-04-25T15:22:03.964Z,72.17
2023-04-25T15:24:30.745Z,72.20
2023-04-25T15:26:57.654Z,72.46
2023-04-25T15:29:24.304Z,72.45
2023-04-25T15:31:51.350Z,72.24
2023-04-25T15:34:18.232Z,72.28
2023-04-25T15:36:45.019Z,72.01
2023-04-25T15:39:11.974Z,72.06
2023-04-25T15:41:38.835Z,71.73
2023-04-25T15:44:05.623Z,71.57
2023-04-25T15:46:32.461Z,71.63
2023-04-25T15:48:59.301Z,71.13
2023-04-25T15:51:27.019Z,71.68
2023-04-25T15:53:54.128Z,71.35
2023-04-25T15:56:21.511Z,71.76
2023-04-25T15:58:48.568Z,71.76
2023-04-25T16:01:15.863Z,71.89
2023-04-25T16:03:42.888Z,72.00
2023-04-25T16:06:09.656Z,72.06
2023-04-25T16:08:36.453Z,72.23
2023-04-25T16:11:03.609Z,72.07
2023-04-25T16:13:30.355Z,72.78
2023-04-25T16:15:57.792Z,72.22
2023-04-25T16:18:24.700Z,72.34
2023-04-25T16:20:51.458Z,72.19
2023-04-25T16:23:18.639Z,72.44
2023-04-25T16:25:45.897Z,72.12
2023-04-25T16:28:12.702Z,72.57
2023-04-25T16:30:39.510Z,72.54
2023-04-25T16:33:06.259Z,72.60
2023-04-25T16:35:33.079Z,71.96
2023-04-25T16:37:59.921Z,72.13
2023-04-25T16:40:27.296Z,72.22
2023-04-25T16:42:53.965Z,72.37
2023-04-25T16:45:21.572Z,72.30
2023-04-25T16:47:48.303Z,72.43
2023-04-25T16:50:15.369Z,72.80
2023-04-25T16:52:44.149Z,72.30
2023-04-25T16:55:11.232Z,72.57
2023-04-25T16:57:38.220Z,72.18
2023-04-25T17:00:06.891Z,72.48
2023-04-25T17:02:33.688Z,72.72
2023-04-25T17:05:00.523Z,72.56
2023-04-25T17:07:27.968Z,72.34
2023-04-25T17:09:54.695Z,72.78
2023-04-25T17:12:21.901Z,72.70
2023-04-25T17:14:49.773Z,72.58
2023-04-25T17:17:18.792Z,73.21
2023-04-25T17:19:46.720Z,72.46
2023-04-25T17:22:13.492Z,72.60
2023-04-25T17:24:40.755Z,72.37
2023-04-25T17:27:07.706Z,72.98
2023-04-25T17:29:35.257Z,72.89
2023-04-25T17:32:02.052Z,73.24
2023-04-25T17:34:29.214Z,73.38
2023-04-25T17:36:55.875Z,73.39
2023-04-25T17:39:22.559Z,73.62
2023-04-25T17:41:49.358Z,73.36
2023-04-25T17:44:16.059Z,72.97
2023-04-25T17:46:42.785Z,73.54
2023-04-25T17:49:09.483Z,73.40
2023-04-25T17:51:36.168Z,73.87
2023-04-25T17:54:03.035Z,73.76
2023-04-25T17:56:30.728Z,73.25
2023-04-25T17:58:57.613Z,73.43
2023-04-25T18:01:24.351Z,73.46
2023-04-25T18:03:51.888Z,73.31
2023-04-25T18:06:19.371Z,73.42
2023-04-25T18:08:47.285Z,73.83
2023-04-25T18:11:14.253Z,72.83
2023-04-25T18:13:41.610Z,73.22
2023-04-25T18:16:08.621Z,73.25
2023-04-25T18:18:36.372Z,73.12
2023-04-25T18:21:05.378Z,73.50
2023-04-25T18:23:34.304Z,73.25
2023-04-25T18:26:02.168Z,73.30
2023-04-25T18:28:29.364Z,73.45
2023-04-25T18:30:56.779Z,73.48
2023-04-25T18:33:23.727Z,72.99
2023-04-25T18:35:58.832Z,73.17
2023-04-25T18:41:08.348Z,73.11
2023-04-25T18:43:44.431Z,73.01
2023-04-25T18:46:11.424Z,73.09
2023-04-25T18:48:38.117Z,73.60
2023-04-25T18:51:05.700Z,72.80
2023-04-25T18:53:32.591Z,73.05
2023-04-25T18:55:59.276Z,73.16
2023-04-25T18:58:26.409Z,72.94
2023-04-25T19:00:53.565Z,72.84
2023-04-25T19:03:21.255Z,73.30
2023-04-25T19:05:48.111Z,73.54
2023-04-25T19:08:14.762Z,73.63
2023-04-25T19:10:41.457Z,73.25
2023-04-25T19:13:08.649Z,73.98
2023-04-25T19:15:35.447Z,73.53
2023-04-25T19:18:02.900Z,73.36
2023-04-25T19:20:29.648Z,73.47
2023-04-25T19:22:56.853Z,73.57
2023-04-25T19:25:24.974Z,73.64
2023-04-25T19:27:51.980Z,73.54
2023-04-25T19:30:18.858Z,73.83
2023-04-25T19:32:46.047Z,73.03
2023-04-25T19:35:13.511Z,73.43
2023-04-25T19:37:46.335Z,73.51
2023-04-25T19:40:19.686Z,73.82
2023-04-25T19:42:46.542Z,73.66
2023-04-25T19:45:13.725Z,73.91
2023-04-25T19:47:42.014Z,73.85
2023-04-25T19:50:09.588Z,73.72
2023-04-25T19:52:37.246Z,73.80
2023-04-25T19:55:05.118Z,73.92
2023-04-25T19:57:33.625Z,73.72
2023-04-25T20:00:02.006Z,73.68
2023-04-25T20:02:28.765Z,73.77
2023-04-25T20:04:55.531Z,73.54
2023-04-25T20:07:23.627Z,73.78
2023-04-25T20:09:50.422Z,74.24
2023-04-25T20:12:18.109Z,73.57
2023-04-25T20:14:45.138Z,73.88
2023-04-25T20:17:12.253Z,74.19
2023-04-25T20:19:39.744Z,74.07
2023-04-25T20:22:06.513Z,73.98
2023-04-25T20:24:33.206Z,74.09
2023-04-25T20:27:00.108Z,73.94
2023-04-25T20:29:27.131Z,74.01
2023-04-25T20:31:55.018Z,73.96
2023-04-25T20:34:22.576Z,74.47
2023-04-25T20:36:49.264Z,73.93
2023-04-25T20:39:16.015Z,74.01
2023-04-25T20:41:44.779Z,74.43
2023-04-25T20:44:12.453Z,73.71
2023-04-25T20:46:39.992Z,74.05
2023-04-25T20:49:07.717Z,73.96
2023-04-25T20:51:37.601Z,73.61
2023-04-25T20:54:04.330Z,74.03
2023-04-25T20:56:31.070Z,73.90
2023-04-25T20:58:58.434Z,73.97
2023-04-25T21:01:25.440Z,74.12
2023-04-25T21:03:53.020Z,74.17
2023-04-25T21:06:19.811Z,74.34
2023-04-25T21:08:46.492Z,74.39
2023-04-25T21:11:13.181Z,74.62
2023-04-25T21:13:39.866Z,74.54
2023-04-25T21:16:06.777Z,74.76
2023-04-25T21:18:34.839Z,74.68
2023-04-25T21:21:04.280Z,74.35
2023-04-25T21:23:31.916Z,74.66
2023-04-25T21:25:58.597Z,74.62
2023-04-25T21:28:25.397Z,74.77
2023-04-25T21:30:52.576Z,74.47
2023-04-25T21:33:19.405Z,74.74
2023-04-25T21:35:46.355Z,74.79
2023-04-25T21:38:13.123Z,74.54
2023-04-25T21:40:40.552Z,74.85
2023-04-25T21:43:07.580Z,75.01
2023-04-25T21:45:43.343Z,74.71
2023-04-25T21:48:21.830Z,74.94
2023-04-25T21:50:48.484Z,74.94
2023-04-25T21:53:15.157Z,74.69
2023-04-25T21:55:41.835Z,75.05
2023-04-25T21:58:08.458Z,75.08
2023-04-25T22:00:35.127Z,74.80
2023-04-25T22:03:01.983Z,74.84
2023-04-25T22:05:29.543Z,75.28
2023-04-25T22:07:59.191Z,74.97
2023-04-25T22:10:25.936Z,75.06
2023-04-25T22:12:52.985Z,75.46
2023-04-25T22:15:21.583Z,75.20
2023-04-25T22:17:48.752Z,75.20
2023-04-25T22:20:15.748Z,75.20
2023-04-25T22:22:43.044Z,75.09
2023-04-25T22:25:12.825Z,75.15
2023-04-25T22:27:43.877Z,75.09
2023-04-25T22:30:15.486Z,75.47
2023-04-25T22:32:43.984Z,75.10
2023-04-25T22:35:11.724Z,75.29
2023-04-25T22:37:40.831Z,75.62
2023-04-25T22:40:09.176Z,75.47
2023-04-25T22:42:40.290Z,75.14
2023-04-25T22:45:08.293Z,75.55
2023-04-25T22:47:39.112Z,75.46
2023-04-25T22:50:12.307Z,75.66
2023-04-25T22:52:39.212Z,75.53
2023-04-25T22:55:06.628Z,75.58
2023-04-25T22:57:33.346Z,75.60
2023-04-25T23:00:00.055Z,75.83
2023-04-25T23:02:27.459Z,75.57
2023-04-25T23:04:55.055Z,75.59
2023-04-25T23:07:21.980Z,75.68
2023-04-25T23:09:49.372Z,75.47
2023-04-25T23:12:21.694Z,75.41
2023-04-25T23:14:52.000Z,75.27
2023-04-25T23:17:18.704Z,75.43
2023-04-25T23:19:45.376Z,75.84
2023-04-25T23:22:12.611Z,75.53
2023-04-25T23:24:39.278Z,75.72
2023-04-25T23:27:06.213Z,75.56
2023-04-25T23:29:34.235Z,75.69
2023-04-25T23:32:04.326Z,75.86
2023-04-25T23:34:31.790Z,75.69
2023-04-25T23:37:01.280Z,76.08
2023-04-25T23:39:28.528Z,75.75
2023-04-25T23:41:55.876Z,76.15
2023-04-25T23:44:22.708Z,75.85
2023-04-25T23:46:50.432Z,76.06
2023-04-25T23:49:17.130Z,76.34
2023-04-25T23:51:43.813Z,75.99
2023-04-25T23:54:10.529Z,76.28
2023-04-25T23:56:37.216Z,75.80
2023-04-25T23:59:04.043Z,75.97
